createdAt,value
2022-10-15T00:01:39.472Z,81.45
2022-10-15T00:04:11.528Z,81.39
2022-10-15T00:06:41.247Z,81.29
2022-10-15T00:09:10.977Z,81.35
2022-10-15T00:11:41.145Z,81.51
2022-10-15T00:14:11.645Z,81.65
2022-10-15T00:16:41.817Z,81.64
2022-10-15T00:19:10.901Z,81.54
2022-10-15T00:21:40.671Z,81.53
2022-10-15T00:24:12.009Z,81.51
2022-10-15T00:26:42.243Z,81.46
2022-10-15T00:29:11.525Z,81.42
2022-10-15T00:31:40.730Z,81.36
2022-10-15T00:34:11.661Z,81.37
2022-10-15T00:36:41.917Z,81.33
2022-10-15T00:39:11.955Z,81.52
2022-10-15T00:41:42.988Z,81.65
2022-10-15T00:44:39.085Z,81.69
2022-10-15T00:47:29.997Z,81.67
2022-10-15T00:50:14.291Z,81.53
2022-10-15T00:52:55.975Z,81.41
2022-10-15T00:55:31.763Z,81.40
2022-10-15T00:58:08.898Z,81.39
2022-10-15T01:00:38.477Z,81.37
2022-10-15T01:03:08.551Z,81.38
2022-10-15T01:05:38.752Z,81.27
2022-10-15T01:08:10.681Z,81.15
2022-10-15T01:11:03.871Z,81.08
2022-10-15T01:13:49.148Z,81.01
2022-10-15T01:16:26.492Z,80.98
2022-10-15T01:19:01.850Z,80.83
2022-10-15T01:21:43.188Z,80.80
2022-10-15T01:24:22.317Z,80.88
2022-10-15T01:27:12.977Z,81.01
2022-10-15T01:30:01.658Z,81.05
2022-10-15T01:32:38.724Z,81.02
2022-10-15T01:35:18.551Z,81.01
2022-10-15T01:38:05.356Z,80.93
2022-10-15T01:41:01.440Z,80.92
2022-10-15T01:43:42.125Z,80.98
2022-10-15T01:46:54.849Z,80.94
2022-10-15T01:49:27.585Z,80.86
2022-10-15T01:51:57.571Z,80.75
2022-10-15T01:54:27.156Z,80.60
2022-10-15T01:56:57.562Z,80.39
2022-10-15T01:59:30.380Z,80.28
2022-10-15T02:01:59.209Z,80.19
2022-10-15T02:04:30.879Z,80.25
2022-10-15T02:07:31.238Z,80.29
2022-10-15T02:10:30.904Z,80.20
2022-10-15T02:13:37.066Z,80.03
2022-10-15T02:16:14.308Z,80.06
2022-10-15T02:19:06.876Z,80.01
2022-10-15T02:21:41.444Z,80.08
2022-10-15T02:24:24.679Z,80.06
2022-10-15T02:26:57.785Z,79.93
2022-10-15T02:29:32.844Z,79.69
2022-10-15T02:32:02.642Z,79.50
2022-10-15T02:34:33.592Z,79.32
2022-10-15T02:37:04.091Z,79.16
2022-10-15T02:39:34.916Z,78.88
2022-10-15T02:42:06.092Z,78.71
2022-10-15T02:44:36.852Z,78.56
2022-10-15T02:47:07.005Z,78.54
2022-10-15T02:49:37.063Z,78.52
2022-10-15T02:52:08.862Z,78.27
2022-10-15T02:54:38.908Z,78.00
2022-10-15T02:57:08.694Z,77.75
2022-10-15T02:59:39.124Z,77.42
2022-10-15T03:02:09.035Z,77.24
2022-10-15T03:04:39.453Z,77.14
2022-10-15T03:07:09.198Z,77.23
2022-10-15T03:09:38.146Z,77.38
2022-10-15T03:12:08.253Z,77.44
2022-10-15T03:14:38.485Z,77.54
2022-10-15T03:17:08.822Z,77.62
2022-10-15T03:19:38.167Z,77.65
2022-10-15T03:22:08.051Z,77.66
2022-10-15T03:24:39.334Z,77.76
2022-10-15T03:27:08.673Z,77.75
2022-10-15T03:29:38.423Z,77.85
2022-10-15T03:32:09.174Z,77.91
2022-10-15T03:34:38.983Z,77.88
2022-10-15T03:37:09.268Z,77.84
2022-10-15T03:39:38.823Z,77.85
2022-10-15T03:42:08.384Z,77.93
2022-10-15T03:44:39.546Z,78.07
2022-10-15T03:47:16.385Z,78.23
2022-10-15T03:49:48.592Z,78.36
2022-10-15T03:52:18.742Z,78.50
2022-10-15T03:54:50.706Z,78.67
2022-10-15T03:57:22.031Z,78.87
2022-10-15T03:59:53.930Z,79.14
2022-10-15T04:02:24.909Z,79.25
2022-10-15T04:04:56.557Z,79.34
2022-10-15T04:07:26.710Z,79.41
2022-10-15T04:09:56.067Z,79.54
2022-10-15T04:12:28.315Z,79.66
2022-10-15T04:14:58.378Z,79.71
2022-10-15T04:17:28.993Z,79.82
2022-10-15T04:19:59.315Z,79.94
2022-10-15T04:22:29.654Z,80.08
2022-10-15T04:25:00.984Z,80.32
2022-10-15T04:27:32.425Z,80.52
2022-10-15T04:30:11.359Z,80.59
2022-10-15T04:32:43.529Z,80.65
2022-10-15T04:35:14.327Z,80.60
2022-10-15T04:37:49.084Z,80.64
2022-10-15T04:40:19.269Z,80.66
2022-10-15T04:42:50.654Z,80.78
2022-10-15T04:45:21.600Z,80.98
2022-10-15T04:47:52.219Z,81.07
2022-10-15T04:50:21.225Z,81.08
2022-10-15T04:53:08.798Z,81.03
2022-10-15T04:55:40.180Z,80.91
2022-10-15T04:58:10.029Z,80.81
2022-10-15T05:00:40.292Z,80.69
2022-10-15T05:03:14.659Z,80.30
2022-10-15T05:05:51.768Z,79.96
2022-10-15T05:08:22.280Z,79.67
2022-10-15T05:11:05.344Z,79.49
2022-10-15T05:13:35.510Z,79.45
2022-10-15T05:16:15.989Z,79.45
2022-10-15T05:18:49.500Z,79.45
2022-10-15T05:21:19.907Z,79.05
2022-10-15T05:23:53.040Z,78.50
2022-10-15T05:26:40.965Z,77.91
2022-10-15T05:29:11.628Z,77.57
2022-10-15T05:31:41.153Z,77.38
2022-10-15T05:34:13.442Z,77.52
2022-10-15T05:36:47.704Z,77.64
2022-10-15T05:39:20.069Z,77.54
2022-10-15T05:41:49.610Z,77.15
2022-10-15T05:44:19.251Z,76.57
2022-10-15T05:46:48.989Z,75.99
2022-10-15T05:49:21.812Z,75.17
2022-10-15T05:54:28.565Z,73.98
2022-10-15T05:56:58.597Z,73.56
2022-10-15T05:59:29.020Z,73.19
2022-10-15T06:02:00.669Z,72.85
2022-10-15T06:04:35.491Z,72.36
2022-10-15T06:07:03.990Z,71.88
2022-10-15T06:09:33.933Z,71.44
2022-10-15T06:12:04.868Z,71.09
2022-10-15T06:14:34.601Z,70.62
2022-10-15T06:17:06.048Z,70.23
2022-10-15T06:19:35.354Z,69.49
2022-10-15T06:22:06.249Z,68.98
2022-10-15T06:24:36.225Z,68.70
2022-10-15T06:27:05.381Z,68.52
2022-10-15T06:29:34.976Z,68.39
2022-10-15T06:32:04.853Z,68.24
2022-10-15T06:34:33.958Z,67.97
2022-10-15T06:37:03.028Z,67.49
2022-10-15T06:39:32.407Z,66.97
2022-10-15T06:42:02.984Z,66.49
2022-10-15T06:44:33.873Z,66.17
2022-10-15T06:47:04.067Z,65.87
2022-10-15T06:49:33.495Z,65.27
2022-10-15T06:52:04.044Z,65.03
2022-10-15T06:54:34.512Z,64.73
2022-10-15T06:57:04.610Z,64.43
2022-10-15T06:59:38.593Z,64.11
2022-10-15T07:02:06.841Z,64.00
2022-10-15T07:04:36.857Z,63.59
2022-10-15T07:07:06.186Z,63.15
2022-10-15T07:09:36.728Z,63.16
2022-10-15T07:12:08.090Z,63.09
2022-10-15T07:14:40.126Z,63.17
2022-10-15T07:17:09.586Z,63.14
2022-10-15T07:19:39.439Z,62.94
2022-10-15T07:22:11.010Z,62.23
2022-10-15T07:24:40.027Z,61.78
2022-10-15T07:27:18.633Z,61.63
2022-10-15T07:29:41.333Z,61.53
2022-10-15T07:32:11.651Z,61.21
2022-10-15T07:34:41.316Z,61.36
2022-10-15T07:37:10.335Z,60.47
2022-10-15T07:39:41.651Z,59.74
2022-10-15T07:44:42.960Z,59.58
2022-10-15T07:47:12.533Z,58.63
2022-10-15T07:49:41.719Z,57.21
2022-10-15T07:52:12.935Z,55.66
2022-10-15T07:54:42.139Z,53.93
2022-10-15T07:57:12.389Z,52.54
2022-10-15T07:59:42.150Z,50.98
2022-10-15T08:02:17.036Z,49.69
2022-10-15T08:04:47.573Z,48.76
2022-10-15T08:07:17.122Z,46.88
2022-10-15T08:09:51.116Z,46.10
2022-10-15T08:12:22.280Z,45.43
2022-10-15T08:14:51.186Z,44.63
2022-10-15T08:17:20.367Z,43.99
2022-10-15T08:19:50.747Z,42.99
2022-10-15T08:22:19.545Z,42.17
2022-10-15T08:24:49.838Z,42.10
2022-10-15T08:27:18.793Z,41.72
2022-10-15T08:29:49.824Z,41.63
2022-10-15T08:32:19.835Z,41.71
2022-10-15T08:34:49.048Z,41.84
2022-10-15T08:37:18.200Z,41.66
2022-10-15T08:39:47.050Z,41.59
2022-10-15T08:42:22.378Z,42.02
2022-10-15T08:44:55.328Z,42.29
2022-10-15T08:47:38.408Z,42.13
2022-10-15T08:50:40.885Z,42.22
2022-10-15T08:53:16.033Z,41.92
2022-10-15T08:55:48.099Z,42.53
2022-10-15T08:58:46.818Z,42.67
2022-10-15T09:01:33.458Z,42.66
2022-10-15T09:04:39.582Z,42.79
2022-10-15T09:07:16.155Z,42.73
2022-10-15T09:09:55.145Z,43.06
2022-10-15T09:12:45.419Z,43.27
2022-10-15T09:15:18.517Z,43.76
2022-10-15T09:17:50.321Z,44.24
2022-10-15T09:20:35.956Z,44.40
2022-10-15T09:23:10.306Z,44.60
2022-10-15T09:25:40.648Z,44.84
2022-10-15T09:28:11.241Z,44.96
2022-10-15T09:30:48.352Z,44.59
2022-10-15T09:33:31.754Z,43.46
2022-10-15T09:36:25.205Z,43.72
2022-10-15T09:39:05.295Z,44.09
2022-10-15T09:41:40.704Z,44.14
2022-10-15T09:44:13.665Z,44.83
2022-10-15T09:46:49.098Z,44.44
2022-10-15T09:49:31.282Z,44.46
2022-10-15T09:52:04.124Z,44.81
2022-10-15T09:54:54.625Z,44.59
2022-10-15T09:57:23.683Z,44.81
2022-10-15T10:00:00.242Z,44.86
2022-10-15T10:02:30.331Z,44.70
2022-10-15T10:05:03.266Z,44.73
2022-10-15T10:07:37.735Z,44.69
2022-10-15T10:10:23.399Z,44.87
2022-10-15T10:12:53.474Z,44.93
2022-10-15T10:15:36.715Z,45.13
2022-10-15T10:18:10.748Z,43.84
2022-10-15T10:20:43.465Z,44.19
2022-10-15T10:23:24.535Z,44.33
2022-10-15T10:25:54.510Z,44.06
2022-10-15T10:28:31.527Z,44.41
2022-10-15T10:31:05.503Z,44.20
2022-10-15T10:33:43.475Z,44.34
2022-10-15T10:36:31.237Z,44.66
2022-10-15T10:39:31.160Z,44.29
2022-10-15T10:42:07.501Z,44.04
2022-10-15T10:44:41.735Z,44.06
2022-10-15T10:47:25.455Z,43.27
2022-10-15T10:50:00.583Z,42.65
2022-10-15T10:52:37.224Z,42.37
2022-10-15T10:55:21.099Z,42.63
2022-10-15T10:57:58.044Z,42.74
2022-10-15T11:00:45.312Z,42.61
2022-10-15T11:03:31.934Z,42.27
2022-10-15T11:06:34.652Z,42.58
2022-10-15T11:09:27.580Z,42.60
2022-10-15T11:12:32.251Z,42.82
2022-10-15T11:15:35.085Z,42.79
2022-10-15T11:18:26.425Z,42.53
2022-10-15T11:21:20.419Z,42.70
2022-10-15T11:24:15.847Z,43.02
2022-10-15T11:27:28.769Z,43.27
2022-10-15T11:30:03.349Z,43.27
2022-10-15T11:33:07.032Z,42.89
2022-10-15T11:35:54.158Z,43.39
2022-10-15T11:38:49.809Z,43.01
2022-10-15T11:41:55.249Z,42.87
2022-10-15T11:44:29.784Z,42.69
2022-10-15T11:47:13.379Z,42.71
2022-10-15T11:50:05.880Z,42.57
2022-10-15T11:53:27.114Z,42.68
2022-10-15T11:56:22.592Z,42.60
2022-10-15T11:59:05.325Z,42.76
2022-10-15T12:01:40.830Z,42.63
2022-10-15T12:04:36.307Z,42.64
2022-10-15T12:07:07.120Z,42.46
2022-10-15T12:09:39.684Z,42.74
2022-10-15T12:12:21.581Z,42.80
2022-10-15T12:15:29.779Z,42.64
2022-10-15T12:18:57.965Z,42.78
2022-10-15T12:21:58.550Z,41.82
2022-10-15T12:24:51.210Z,41.70
2022-10-15T12:27:29.300Z,41.38
2022-10-15T12:30:06.702Z,41.18
2022-10-15T12:32:43.127Z,41.09
2022-10-15T12:35:19.635Z,41.11
2022-10-15T12:37:49.830Z,41.21
2022-10-15T12:40:26.799Z,40.83
2022-10-15T12:43:01.304Z,40.64
2022-10-15T12:45:40.663Z,40.79
2022-10-15T12:48:19.918Z,40.69
2022-10-15T12:50:48.850Z,40.72
2022-10-15T12:53:34.230Z,40.75
2022-10-15T12:56:17.929Z,40.74
2022-10-15T12:58:49.109Z,40.47
2022-10-15T13:01:26.273Z,40.47
2022-10-15T13:03:58.514Z,40.39
2022-10-15T13:06:35.107Z,40.61
2022-10-15T13:09:12.394Z,40.78
2022-10-15T13:14:43.055Z,41.18
2022-10-15T13:17:18.766Z,41.18
2022-10-15T13:19:59.096Z,41.29
2022-10-15T13:22:29.722Z,41.10
2022-10-15T13:24:59.126Z,41.36
2022-10-15T13:27:39.556Z,41.26
2022-10-15T13:30:13.406Z,41.50
2022-10-15T13:32:50.756Z,41.64
2022-10-15T13:35:29.322Z,41.64
2022-10-15T13:38:00.090Z,41.60
2022-10-15T13:40:29.957Z,41.37
2022-10-15T13:43:08.529Z,41.34
2022-10-15T13:45:41.036Z,41.31
2022-10-15T13:48:18.408Z,41.41
2022-10-15T13:50:50.057Z,41.38
2022-10-15T13:53:36.734Z,41.56
2022-10-15T13:56:29.163Z,41.59
2022-10-15T13:59:00.105Z,41.56
2022-10-15T14:01:29.867Z,41.68
2022-10-15T14:04:01.324Z,41.62
2022-10-15T14:06:34.949Z,41.42
2022-10-15T14:09:22.904Z,41.46
2022-10-15T14:11:59.070Z,41.39
2022-10-15T14:14:40.533Z,41.35
2022-10-15T14:17:15.109Z,41.65
2022-10-15T14:20:22.166Z,42.05
2022-10-15T14:22:31.557Z,42.01
2022-10-15T14:25:01.042Z,42.10
2022-10-15T14:27:30.493Z,42.05
2022-10-15T14:30:01.325Z,42.34
2022-10-15T14:32:34.542Z,42.15
2022-10-15T14:35:10.056Z,42.13
2022-10-15T14:37:41.505Z,42.27
2022-10-15T14:40:15.342Z,42.36
2022-10-15T14:43:07.762Z,42.58
2022-10-15T14:45:54.279Z,42.70
2022-10-15T14:48:29.454Z,42.92
2022-10-15T14:50:59.424Z,42.92
2022-10-15T14:53:31.123Z,43.26
2022-10-15T14:56:24.125Z,43.73
2022-10-15T14:58:56.868Z,43.78
2022-10-15T15:01:27.789Z,44.30
2022-10-15T15:03:57.781Z,44.32
2022-10-15T15:06:27.542Z,44.35
2022-10-15T15:08:57.668Z,44.45
2022-10-15T15:11:26.561Z,44.59
2022-10-15T15:13:56.030Z,44.70
2022-10-15T15:16:25.006Z,44.76
2022-10-15T15:18:54.497Z,45.02
2022-10-15T15:21:24.038Z,45.32
2022-10-15T15:23:53.668Z,45.60
2022-10-15T15:26:24.892Z,45.85
2022-10-15T15:28:55.838Z,46.15
2022-10-15T15:31:28.350Z,46.44
2022-10-15T15:33:58.388Z,46.80
2022-10-15T15:36:28.914Z,47.06
2022-10-15T15:39:00.596Z,47.39
2022-10-15T15:41:30.785Z,47.69
2022-10-15T15:44:01.532Z,48.01
2022-10-15T15:46:30.844Z,48.33
2022-10-15T15:49:01.228Z,48.67
2022-10-15T15:51:32.056Z,48.99
2022-10-15T15:54:03.796Z,49.35
2022-10-15T15:56:34.869Z,49.66
2022-10-15T15:59:06.013Z,49.88
2022-10-15T16:01:34.857Z,50.14
2022-10-15T16:04:05.247Z,50.40
2022-10-15T16:06:35.404Z,50.93
2022-10-15T16:09:06.443Z,51.37
2022-10-15T16:11:40.420Z,51.68
2022-10-15T16:14:10.552Z,52.02
2022-10-15T16:16:40.124Z,52.65
2022-10-15T16:19:10.061Z,52.75
2022-10-15T16:21:39.857Z,52.76
2022-10-15T16:24:09.697Z,52.67
2022-10-15T16:26:40.127Z,52.69
2022-10-15T16:29:11.372Z,52.62
2022-10-15T16:31:42.145Z,52.57
2022-10-15T16:34:13.147Z,52.64
2022-10-15T16:36:42.973Z,52.74
2022-10-15T16:39:13.247Z,52.73
2022-10-15T16:41:42.049Z,52.77
2022-10-15T16:44:12.502Z,52.70
2022-10-15T16:46:41.539Z,52.75
2022-10-15T16:49:10.567Z,52.84
2022-10-15T16:51:43.557Z,52.90
2022-10-15T16:54:15.654Z,53.08
2022-10-15T16:56:49.119Z,53.11
2022-10-15T16:59:17.613Z,53.18
2022-10-15T17:01:48.264Z,53.26
2022-10-15T17:04:18.252Z,53.48
2022-10-15T17:06:47.072Z,53.61
2022-10-15T17:09:17.837Z,53.72
2022-10-15T17:11:48.628Z,53.85
2022-10-15T17:14:20.551Z,54.28
2022-10-15T17:16:51.497Z,54.66
2022-10-15T17:19:24.017Z,54.99
2022-10-15T17:21:55.112Z,55.39
2022-10-15T17:24:26.900Z,55.75
2022-10-15T17:26:58.217Z,56.02
2022-10-15T17:29:32.487Z,56.37
2022-10-15T17:32:00.733Z,56.72
2022-10-15T17:34:30.186Z,56.98
2022-10-15T17:37:00.131Z,57.28
2022-10-15T17:39:29.900Z,57.57
2022-10-15T17:42:00.197Z,57.83
2022-10-15T17:44:30.325Z,58.05
2022-10-15T17:47:01.165Z,58.35
2022-10-15T17:49:31.861Z,58.67
2022-10-15T17:52:02.427Z,59.01
2022-10-15T17:54:32.676Z,59.36
2022-10-15T17:57:02.117Z,59.64
2022-10-15T17:59:32.546Z,59.87
2022-10-15T18:02:01.655Z,60.11
2022-10-15T18:04:33.618Z,60.25
2022-10-15T18:07:02.739Z,60.38
2022-10-15T18:09:31.897Z,60.50
2022-10-15T18:12:04.401Z,60.69
2022-10-15T18:14:37.570Z,60.83
2022-10-15T18:17:07.616Z,60.97
2022-10-15T18:19:36.885Z,61.12
2022-10-15T18:22:07.049Z,61.22
2022-10-15T18:24:37.329Z,61.31
2022-10-15T18:27:06.923Z,61.19
2022-10-15T18:29:36.216Z,61.06
2022-10-15T18:32:05.560Z,60.85
2022-10-15T18:34:35.496Z,60.76
2022-10-15T18:37:05.326Z,60.47
2022-10-15T18:39:34.402Z,60.45
2022-10-15T18:42:04.781Z,60.41
2022-10-15T18:44:34.296Z,60.20
2022-10-15T18:47:03.883Z,60.08
2022-10-15T18:49:35.556Z,59.88
2022-10-15T18:52:15.872Z,59.67
2022-10-15T18:54:40.504Z,59.50
2022-10-15T18:57:09.583Z,59.43
2022-10-15T18:59:40.717Z,59.30
2022-10-15T19:02:10.700Z,59.31
2022-10-15T19:04:41.098Z,59.20
2022-10-15T19:07:11.449Z,59.24
2022-10-15T19:09:41.557Z,59.22
2022-10-15T19:12:12.045Z,59.10
2022-10-15T19:14:43.717Z,59.07
2022-10-15T19:17:14.744Z,59.09
2022-10-15T19:19:46.281Z,59.27
2022-10-15T19:22:15.277Z,59.38
2022-10-15T19:24:45.263Z,59.45
2022-10-15T19:27:14.968Z,59.53
2022-10-15T19:29:45.792Z,59.67
2022-10-15T19:32:14.865Z,59.78
2022-10-15T19:34:43.939Z,59.93
2022-10-15T19:37:12.836Z,60.06
2022-10-15T19:39:48.401Z,60.24
2022-10-15T19:42:18.849Z,60.31
2022-10-15T19:44:49.593Z,60.46
2022-10-15T19:47:20.767Z,60.60
2022-10-15T19:49:50.624Z,60.75
2022-10-15T19:52:20.176Z,60.92
2022-10-15T19:54:52.115Z,61.10
2022-10-15T19:57:22.234Z,61.23
2022-10-15T19:59:52.595Z,61.57
2022-10-15T20:02:21.525Z,62.00
2022-10-15T20:04:51.317Z,62.10
2022-10-15T20:07:20.354Z,62.21
2022-10-15T20:09:50.155Z,62.33
2022-10-15T20:12:20.003Z,62.46
2022-10-15T20:14:50.292Z,62.47
2022-10-15T20:17:21.021Z,62.52
2022-10-15T20:19:50.199Z,62.61
2022-10-15T20:22:21.728Z,62.72
2022-10-15T20:24:51.342Z,62.87
2022-10-15T20:27:21.744Z,63.00
2022-10-15T20:29:50.940Z,63.10
2022-10-15T20:32:34.448Z,63.21
2022-10-15T20:34:53.338Z,63.33
2022-10-15T20:37:23.155Z,63.44
2022-10-15T20:39:53.131Z,63.53
2022-10-15T20:42:23.682Z,63.56
2022-10-15T20:44:52.876Z,63.66
2022-10-15T20:47:22.597Z,63.81
2022-10-15T20:49:52.741Z,63.97
2022-10-15T20:52:23.304Z,64.26
2022-10-15T20:54:54.394Z,64.42
2022-10-15T20:57:23.329Z,64.53
2022-10-15T20:59:54.959Z,64.65
2022-10-15T21:02:24.658Z,65.01
2022-10-15T21:04:54.530Z,65.12
2022-10-15T21:07:24.613Z,65.15
2022-10-15T21:09:54.503Z,65.09
2022-10-15T21:12:25.374Z,65.16
2022-10-15T21:14:56.442Z,65.22
2022-10-15T21:17:27.754Z,65.31
2022-10-15T21:19:58.574Z,65.44
2022-10-15T21:22:28.071Z,65.58
2022-10-15T21:24:58.618Z,65.81
2022-10-15T21:27:28.050Z,66.02
2022-10-15T21:29:58.393Z,66.14
2022-10-15T21:32:28.340Z,66.34
2022-10-15T21:34:59.534Z,66.59
2022-10-15T21:37:28.789Z,66.80
2022-10-15T21:39:58.312Z,66.90
2022-10-15T21:42:29.586Z,66.93
2022-10-15T21:45:00.667Z,66.97
2022-10-15T21:47:31.482Z,67.02
2022-10-15T21:50:00.992Z,67.12
2022-10-15T21:52:31.469Z,67.19
2022-10-15T21:55:01.342Z,67.41
2022-10-15T21:57:34.582Z,67.54
2022-10-15T22:00:06.915Z,67.56
2022-10-15T22:02:39.394Z,67.59
2022-10-15T22:05:09.371Z,67.69
2022-10-15T22:07:40.403Z,67.80
2022-10-15T22:10:09.898Z,67.91
2022-10-15T22:12:40.393Z,68.02
2022-10-15T22:15:10.440Z,68.08
2022-10-15T22:17:39.706Z,68.19
2022-10-15T22:20:10.214Z,68.18
2022-10-15T22:22:39.118Z,68.22
2022-10-15T22:25:08.846Z,68.31
2022-10-15T22:27:38.505Z,68.43
2022-10-15T22:30:08.843Z,68.68
2022-10-15T22:32:38.476Z,68.77
2022-10-15T22:35:10.811Z,68.75
2022-10-15T22:37:41.517Z,68.83
2022-10-15T22:40:12.163Z,69.04
2022-10-15T22:42:41.542Z,69.16
2022-10-15T22:45:12.852Z,69.31
2022-10-15T22:47:42.821Z,69.38
2022-10-15T22:50:12.518Z,69.35
2022-10-15T22:52:43.519Z,69.33
2022-10-15T22:55:13.041Z,69.40
2022-10-15T22:57:42.188Z,69.57
2022-10-15T23:00:13.121Z,69.60
2022-10-15T23:02:43.543Z,69.59
2022-10-15T23:05:12.500Z,69.59
2022-10-15T23:07:45.751Z,69.63
2022-10-15T23:10:15.645Z,69.80
2022-10-15T23:12:45.862Z,70.07
2022-10-15T23:15:16.117Z,70.26
2022-10-15T23:17:45.882Z,70.46
2022-10-15T23:20:16.545Z,70.62
2022-10-15T23:22:49.202Z,70.76
2022-10-15T23:25:20.971Z,70.84
2022-10-15T23:27:50.494Z,70.87
2022-10-15T23:30:24.981Z,71.02
2022-10-15T23:32:52.248Z,71.11
2022-10-15T23:35:22.111Z,71.13
2022-10-15T23:37:51.719Z,71.15
2022-10-15T23:40:20.548Z,71.13
2022-10-15T23:42:51.312Z,71.12
2022-10-15T23:45:21.257Z,71.15
2022-10-15T23:47:50.631Z,71.14
2022-10-15T23:50:20.928Z,71.13
2022-10-15T23:52:51.623Z,71.21
2022-10-15T23:55:22.081Z,71.23
2022-10-15T23:57:51.287Z,71.29
